Estación municipal de Susqueda - St. Martí Sacalm (La Selva, )

Consulta los datos en tiempo real de la estación municipal de Susqueda - St. Martí Sacalm





Hora UTC 19:00
Temperatura 9.5 ºC
Humedad 98.9 %
Presión 1011.5 hPa
Pluja 15.7 mm
Velocidad viento 15.1 km/h
Dirección viento NNE
Radiación solar 0.2 W/m²

Datos diarios 2026-05-09



Hora UTC (invierno +1h; verano +2h)
Temperatura (ºC) Humedad (%) Presión (hPa) Velocidad viento (km/h) Precipitación (mm) Radiación solar (W/m²)
Hora UTC Aire Humedad Presión Vel. Dir. Vel. Max Dir. Intent. máx 5 min. Rad. Sol.
00:05 9.2 96.9 1015.5 13.6 SW 13.6 SW 0.0 0.1
00:10 9.2 97.0 1015.4 12.4 SW 16.2 SW 0.0 0.1
00:15 9.1 97.0 1015.4 12.6 SW 16.2 SW 0.0 0.1
00:20 9.1 97.1 1015.4 12.5 SW 15.9 SW 0.0 0.1
00:25 9.0 97.2 1015.5 13.1 SW 16.2 SW 0.0 0.1
00:30 9.0 97.3 1015.5 13.4 SW 15.5 SW 0.0 0.1
00:35 9.0 97.4 1015.4 13.5 SW 15.9 SW 0.0 0.1
00:40 8.9 97.5 1015.4 14.3 SW 16.6 SW 0.0 0.1
00:45 8.9 97.5 1015.4 13.0 SW 17.0 SW 0.0 0.1
00:50 8.9 97.7 1015.4 14.0 SW 18.0 SW 0.0 0.1
00:55 8.9 97.7 1015.4 14.8 SW 17.3 SW 0.0 0.1
01:00 8.9 97.7 1015.4 15.1 SW 19.4 SW 0.0 0.1
01:05 8.8 97.8 1015.3 13.8 SW 18.4 SW 0.0 0.1
01:10 8.8 97.8 1015.2 15.5 SW 19.4 SW 0.0 0.1
01:15 8.7 97.7 1015.2 15.1 SW 21.9 SW 0.0 0.1
01:20 8.7 97.7 1015.2 16.3 SW 20.1 SW 0.0 0.1
01:25 8.8 97.7 1015.2 16.6 SW 20.5 SW 0.0 0.1
01:30 8.7 97.5 1015.3 16.4 SW 20.1 SW 0.0 0.1
01:35 8.6 97.5 1015.2 16.0 SW 19.1 SSW 0.0 0.1
01:40 8.6 97.5 1015.2 14.6 SW 17.7 SW 0.0 0.1
01:45 8.6 97.5 1015.2 13.1 SW 17.3 SW 0.0 0.1
01:50 8.7 97.3 1015.1 10.9 SW 16.6 SW 0.0 0.1
01:55 8.8 96.8 1015.0 10.4 SW 14.5 SW 0.0 0.1
02:00 8.9 96.0 1015.0 10.9 SW 16.6 SW 0.0 0.1
02:05 8.9 95.4 1015.0 10.6 SW 14.1 SW 0.0 0.1
02:10 8.8 95.5 1015.0 11.0 SW 16.6 SSW 0.0 0.1
02:15 8.8 95.6 1015.0 12.8 SSW 17.3 SSW 0.0 0.1
02:20 9.0 95.5 1015.0 15.5 SW 19.8 SW 0.0 0.1
02:25 9.1 94.9 1014.9 15.2 SW 20.1 SW 0.0 0.1
02:30 9.1 94.6 1014.8 15.7 SW 19.8 SSW 0.0 0.1
02:35 9.1 94.7 1014.8 13.2 SW 17.7 SW 0.0 0.1
02:40 9.0 94.9 1014.7 13.8 SW 18.0 SW 0.0 0.1
02:45 9.1 95.0 1014.7 14.1 WSW 17.3 SW 0.0 0.1
02:50 9.2 94.2 1014.6 11.0 WSW 15.5 W 0.0 0.1
02:55 9.6 92.0 1014.5 10.7 WSW 18.4 WSW 0.0 0.1
03:00 10.1 89.2 1014.5 11.7 WSW 17.7 WSW 0.0 0.1
03:05 10.3 86.6 1014.5 11.5 WSW 23.0 WSW 0.0 0.1
03:10 10.4 85.5 1014.4 11.1 WSW 19.4 W 0.0 0.1
03:15 10.5 84.6 1014.5 11.5 WSW 18.7 W 0.0 0.1
03:20 10.4 84.4 1014.4 11.7 WSW 20.1 WSW 0.0 0.1
03:25 10.4 84.2 1014.3 13.3 SW 18.0 WSW 0.0 0.1
03:30 10.5 83.9 1014.3 12.6 WSW 18.4 WSW 0.0 0.1
03:35 10.6 83.1 1014.4 9.7 SW 17.3 SW 0.0 0.1
03:40 10.4 83.6 1014.4 8.6 SW 11.7 WSW 0.0 0.1
03:45 10.1 84.9 1014.4 8.5 SW 11.3 SW 0.0 0.1
03:50 10.0 85.5 1014.4 8.5 SW 10.6 SW 0.0 0.1
03:55 9.8 86.6 1014.4 8.8 SSW 12.4 SSW 0.0 0.1
04:00 9.8 86.7 1014.4 10.0 SSW 12.7 SSW 0.0 0.1
04:05 9.8 87.1 1014.5 11.2 SW 14.1 SW 0.0 0.1
04:10 9.6 89.3 1014.5 11.7 WSW 13.8 WSW 0.0 0.1
04:15 9.6 90.0 1014.4 10.5 WSW 12.7 WSW 0.0 0.2
04:20 9.5 90.7 1014.4 9.4 SW 12.4 WSW 0.0 0.6
04:25 9.4 91.1 1014.4 8.7 SW 10.6 SW 0.0 2.5
04:30 9.4 91.2 1014.4 7.7 SSW 10.3 SW 0.0 3.3
04:35 9.5 90.8 1014.5 6.9 SSW 10.6 SSW 0.0 2.6
04:40 9.6 90.3 1014.5 5.2 SSW 8.5 SSW 0.0 4.6
04:45 9.6 89.3 1014.6 4.7 SSW 6.4 SW 0.0 8.2
04:50 9.7 88.7 1014.6 7.1 SSW 9.5 SW 0.0 12.7
04:55 9.9 88.1 1014.6 8.3 SSW 10.6 SSW 0.0 18.0
05:00 9.8 88.5 1014.7 8.2 SW 9.9 SW 0.0 24.4
05:05 9.7 89.1 1014.7 8.0 SW 9.5 SW 0.0 29.5
05:10 9.7 89.5 1014.7 8.0 SW 9.9 SW 0.0 36.6
05:15 9.7 89.5 1014.7 7.5 SW 9.9 SW 0.0 45.2
05:20 9.9 89.0 1014.7 5.6 SW 8.1 SW 0.0 52.5
05:25 10.0 88.2 1014.8 4.8 SW 7.1 SW 0.0 57.4
05:30 10.1 87.7 1014.8 3.0 SW 4.2 SSW 0.0 62.8
05:35 10.4 86.1 1014.8 4.0 SSW 5.3 SSW 0.0 64.1
05:40 10.4 86.8 1014.9 4.4 SSW 6.4 SSW 0.0 65.0
05:45 10.4 87.7 1014.9 3.3 SSW 5.0 SSW 0.0 69.7
05:50 10.4 87.4 1014.9 3.8 SW 5.3 SW 0.0 80.5
05:55 10.5 86.9 1014.9 2.8 SSW 5.0 SSW 0.0 93.3
06:00 10.6 87.0 1014.8 1.0 SW 3.2 SSW 0.0 106.1
06:05 10.6 86.5 1014.8 0.0 NNE 0.0 WSW 0.0 112.4
06:10 10.7 85.5 1014.8 0.9 WNW 2.8 WNW 0.0 122.7
06:15 10.9 84.8 1014.8 0.2 W 3.2 W 0.0 134.3
06:20 11.1 84.0 1014.7 0.0 NNE 0.0 SSW 0.0 149.3
06:25 11.3 85.2 1014.8 0.5 SSE 5.0 SSE 0.0 166.1
06:30 11.4 87.7 1014.8 0.5 SSE 3.5 SSW 0.0 182.8
06:35 11.5 88.1 1014.8 3.1 SW 5.7 WSW 0.0 189.7
06:40 11.4 88.0 1014.9 4.9 WSW 7.4 SW 0.0 182.8
06:45 11.5 87.3 1014.8 2.5 WSW 5.3 WSW 0.0 180.5
06:50 11.6 86.7 1014.8 0.1 SE 2.1 SSE 0.0 183.0
06:55 11.9 87.6 1014.8 1.2 S 5.0 SSW 0.0 215.5
07:00 12.2 87.3 1014.7 0.6 NE 3.2 NE 0.0 249.0
07:05 12.5 86.6 1014.7 1.4 NE 5.7 NNE 0.0 271.6
07:10 12.7 86.0 1014.7 3.1 NNE 7.4 NE 0.0 287.3
07:15 12.5 86.5 1014.7 4.4 NNE 9.9 NNE 0.0 303.1
07:20 12.4 86.3 1014.6 4.8 NE 8.8 NNE 0.0 341.9
07:25 12.5 87.2 1014.6 6.1 NNE 10.3 NNE 0.0 330.5
07:30 12.5 86.2 1014.6 6.0 NE 9.5 NNE 0.0 301.1
07:35 12.4 87.1 1014.7 5.9 NNE 9.5 NNE 0.0 291.0
07:40 12.5 87.2 1014.6 6.9 NE 12.4 NNE 0.0 328.4
07:45 12.6 87.8 1014.6 6.7 NE 12.0 ENE 0.0 363.0
07:50 12.6 87.5 1014.8 6.3 NE 11.0 NE 0.0 304.1
07:55 12.5 87.2 1014.8 7.7 NNE 14.1 NNE 0.0 300.6
08:00 12.2 87.7 1014.8 8.4 NNE 14.1 N 0.0 356.8
08:05 12.3 87.7 1014.5 9.7 NNE 15.5 N 0.0 387.7
08:10 12.3 87.0 1014.5 10.6 NE 18.4 NNE 0.0 392.4
08:15 12.4 87.6 1014.5 10.2 NE 17.0 NE 0.0 308.8
08:20 12.5 87.5 1014.5 9.5 NE 16.6 NE 0.0 277.0
08:25 12.4 87.8 1014.4 10.3 NE 16.6 NE 0.0 301.6
08:30 12.2 88.7 1014.4 11.3 NNE 19.4 N 0.0 387.7
08:35 12.4 89.0 1014.3 9.7 NE 18.4 NNE 0.0 394.7
08:40 12.5 88.0 1014.3 12.4 NNE 22.2 NNE 0.0 268.3
08:45 12.3 88.9 1014.3 9.8 NE 17.0 NE 0.0 171.2
08:50 12.2 89.7 1014.4 8.8 NE 17.0 NNE 0.0 343.6
08:55 12.5 90.0 1014.4 9.6 NE 17.7 NNE 0.0 446.6
09:00 12.8 86.8 1014.4 9.6 NE 18.0 NE 0.0 454.4
09:05 13.0 84.9 1014.5 9.6 NNE 16.6 NNE 0.0 578.2
09:10 13.3 85.3 1014.5 9.7 NNE 17.0 NNE 0.0 466.0
09:15 13.5 83.9 1014.6 6.3 NE 16.6 ENE 0.0 490.4
09:20 14.0 83.0 1014.5 5.2 ENE 12.4 E 0.0 442.9
09:25 14.2 81.1 1014.5 7.2 ENE 15.5 NE 0.0 300.1
09:30 13.9 83.7 1014.6 6.6 NE 15.2 NNE 0.0 303.8
09:35 13.6 84.5 1014.7 8.9 NE 17.7 NE 0.0 298.6
09:40 13.2 85.2 1014.7 10.2 NNE 15.9 NNE 0.0 222.3
09:45 12.9 86.9 1014.7 8.5 NNE 15.9 NNE 0.0 201.2
09:50 12.7 87.5 1014.8 10.1 NNE 18.7 NNE 0.0 175.7
09:55 12.7 88.3 1014.9 4.2 NE 11.0 ENE 0.0 167.5
10:00 12.9 86.8 1015.0 7.7 E 16.2 E 0.0 144.7
10:05 12.9 87.8 1014.9 5.5 NNE 17.7 NNE 0.0 326.8
10:10 13.1 86.4 1015.0 7.9 NE 17.3 ENE 0.0 353.3
10:15 13.2 85.4 1015.0 9.0 N 17.7 N 0.0 317.4
10:20 13.3 85.5 1015.1 7.2 NE 14.5 NNE 0.0 309.3
10:25 13.4 83.3 1015.0 11.0 NE 21.2 NE 0.0 441.8
10:30 13.6 81.6 1014.9 12.3 NE 21.9 NE 0.0 394.1
10:35 13.7 82.1 1014.8 10.8 NE 22.2 ENE 0.0 355.8
10:40 13.7 81.6 1014.9 10.3 NE 18.4 NE 0.0 216.8
10:45 13.4 81.3 1014.9 10.8 ENE 17.3 NE 0.0 135.8
10:50 13.2 83.3 1014.9 10.3 NE 16.6 NE 0.0 173.9
10:55 13.1 84.0 1014.9 11.0 ENE 15.9 ENE 0.0 157.1
11:00 13.0 84.7 1014.8 9.2 NE 18.0 ENE 0.0 160.2
11:05 12.9 85.5 1014.8 9.6 NE 15.9 NE 0.0 92.7
11:10 12.8 85.8 1014.8 10.0 ENE 15.2 ENE 0.0 47.8
11:15 12.7 86.4 1014.8 9.1 ENE 14.5 NE 0.0 51.1
11:20 12.5 87.4 1014.8 6.0 NNE 11.7 NE 0.0 36.9
11:25 12.4 88.8 1014.8 2.2 NE 8.8 NE 0.0 63.5
11:30 12.5 89.1 1014.7 7.2 ENE 12.7 NE 0.0 71.8
11:35 12.4 88.9 1014.7 7.9 ENE 13.8 ENE 0.0 68.9
11:40 12.4 89.5 1014.9 2.5 E 9.5 ESE 0.0 64.4
11:45 12.3 87.3 1014.9 2.4 ESE 6.4 SSE 0.0 67.8
11:50 12.4 87.8 1014.8 2.9 ESE 6.0 SE 0.0 87.8
11:55 12.4 87.4 1014.7 1.4 SE 5.0 SE 0.0 90.1
12:00 12.4 87.1 1014.7 2.3 SW 5.3 WSW 0.0 99.9
12:05 12.3 88.0 1014.7 3.5 SW 6.7 SSW 0.0 94.3
12:10 12.3 88.8 1014.7 3.9 SW 5.0 SW 0.0 75.6
12:15 12.2 89.2 1014.6 2.0 SSW 5.0 SSW 0.0 41.3
12:20 12.3 89.3 1014.5 0.0 NE 2.1 NE 0.0 33.8
12:25 12.3 90.1 1014.4 3.7 E 8.8 ENE 0.4 24.1
12:30 12.3 90.8 1014.3 7.2 ENE 17.0 NE 0.4 33.5
12:35 12.0 92.2 1014.2 12.3 E 17.3 E 0.7 48.1
12:40 11.8 93.2 1014.1 10.6 E 17.0 ENE 0.1 74.5
12:45 11.7 94.4 1013.9 6.1 NE 14.8 ENE 0.2 118.9
12:50 11.6 95.2 1013.7 7.0 NE 12.4 NE 0.0 177.8
12:55 11.6 95.9 1013.7 7.0 NE 13.8 NE 0.0 203.2
13:00 11.7 96.2 1013.7 10.2 ENE 15.2 ENE 0.0 232.3
13:05 11.7 96.1 1013.6 9.9 ENE 17.7 NE 0.0 227.0
13:10 11.6 95.2 1013.7 9.7 ENE 15.9 ENE 0.0 221.9
13:15 11.7 95.1 1013.7 4.9 NE 14.5 NNE 0.0 197.6
13:20 11.6 94.2 1013.7 7.9 NNE 12.7 N 0.0 215.3
13:25 11.7 95.2 1013.7 7.9 NNE 13.4 NNE 0.0 230.6
13:30 11.6 95.4 1013.7 6.9 NNE 10.6 NNE 0.0 244.2
13:35 11.7 95.3 1013.6 7.7 NNE 12.7 NNE 0.0 276.5
13:40 11.8 94.6 1013.5 6.0 NE 10.6 NE 0.0 281.5
13:45 12.0 94.6 1013.6 5.1 ENE 11.0 ENE 0.0 308.7
13:50 12.2 93.6 1013.7 5.3 NE 9.2 NNE 0.0 288.2
13:55 12.3 93.6 1013.8 6.9 ENE 12.4 E 0.0 265.7
14:00 12.5 93.6 1013.9 9.0 ENE 16.2 ENE 0.0 239.4
14:05 12.6 93.4 1013.9 5.2 ENE 9.2 NE 0.0 204.2
14:10 12.5 92.6 1013.8 7.5 NE 11.7 NE 0.0 154.3
14:15 12.3 93.6 1013.6 8.5 NE 14.8 NE 0.0 127.7
14:20 12.0 94.0 1013.6 7.2 NNE 13.1 NNE 0.0 106.1
14:25 11.9 94.6 1013.5 7.2 NNE 12.0 NNE 0.0 92.9
14:30 11.8 94.8 1013.6 7.7 NE 12.4 NE 0.0 89.5
14:35 11.7 94.9 1013.6 8.3 NE 12.4 ENE 0.0 76.9
14:40 11.8 95.1 1013.7 5.3 E 7.8 ENE 0.0 57.4
14:45 11.9 95.4 1013.7 7.2 E 13.4 ESE 0.0 41.9
14:50 11.8 95.2 1013.6 6.7 ENE 11.3 E 0.0 34.8
14:55 11.7 94.9 1013.5 6.0 ENE 12.4 E 0.0 30.8
15:00 11.6 94.9 1013.1 8.5 NE 14.5 NNE 0.0 23.9
15:05 11.5 95.4 1012.8 10.5 NNE 19.4 NNE 0.0 17.3
15:10 11.4 96.1 1012.5 10.2 NNE 17.7 NNE 0.0 15.9
15:15 11.4 96.6 1012.4 8.5 NE 15.2 NE 0.0 13.8
15:20 11.4 97.0 1012.3 10.4 NE 17.0 NE 0.0 19.0
15:25 11.4 97.3 1012.3 12.1 NE 19.8 NE 0.0 24.7
15:30 11.4 97.5 1012.2 14.3 NE 21.2 NE 0.1 26.5
15:35 11.4 97.6 1012.0 14.7 NE 24.4 NE 0.0 45.1
15:40 11.3 97.7 1011.8 13.4 NE 23.7 NE 0.2 47.0
15:45 11.4 97.9 1011.9 12.2 NE 20.1 ENE 0.1 36.0
15:50 11.4 98.0 1012.0 12.3 NE 21.5 ENE 0.2 27.2
15:55 11.4 98.1 1012.1 10.9 NE 18.0 NE 0.1 16.2
16:00 11.4 98.2 1012.2 9.5 NNE 17.0 NE 0.1 11.3
16:05 11.4 98.2 1012.3 7.6 NNE 14.8 NNE 0.0 8.6
16:10 11.4 98.3 1012.7 5.6 E 8.8 NE 0.1 5.4
16:15 11.3 98.3 1013.0 4.5 ESE 7.8 ESE 0.1 8.2
16:20 11.3 98.3 1013.1 3.6 SE 5.7 SSE 0.1 9.7
16:25 11.1 98.2 1013.4 4.3 S 7.1 S 0.2 7.2
16:30 10.9 98.0 1013.5 5.2 SSW 8.8 SW 0.4 5.4
16:35 10.9 97.9 1013.6 7.4 SSW 11.3 S 0.5 5.3
16:40 10.8 97.9 1013.6 6.1 S 10.6 SSE 0.6 7.3
16:45 10.7 97.9 1013.6 4.3 S 7.8 S 0.7 8.2
16:50 10.6 97.9 1013.4 1.8 SSW 5.0 SSW 0.8 8.6
16:55 10.6 97.8 1013.3 1.7 SSW 4.6 W 0.8 9.0
17:00 10.5 97.9 1013.2 2.5 WSW 6.4 W 0.6 8.7
17:05 10.5 97.8 1013.1 0.3 WSW 2.5 WSW 0.5 9.0
17:10 10.3 97.4 1013.1 2.7 ESE 7.4 E 0.5 9.1
17:15 10.3 97.5 1013.2 5.5 ENE 7.1 E 0.4 6.5
17:20 10.3 97.6 1013.0 6.7 NE 9.2 ENE 0.4 4.2
17:25 10.2 97.7 1012.9 7.4 NNE 10.6 NNE 0.4 3.1
17:30 10.2 97.9 1012.8 7.3 NNE 11.0 NNE 0.5 2.4
17:35 10.2 98.1 1012.7 6.1 NE 10.6 ENE 0.4 2.6
17:40 10.2 98.2 1012.6 8.3 NNE 13.1 NNE 0.5 2.9
17:45 10.2 98.3 1012.6 10.0 NNE 15.5 NNE 0.6 3.0
17:50 10.1 98.3 1012.5 8.9 NE 15.5 NNE 0.8 3.6
17:55 10.1 98.5 1012.4 9.1 NE 18.4 NNE 0.7 3.4
18:00 10.1 98.5 1012.2 9.8 NE 14.8 E 0.5 3.7
18:05 10.1 98.6 1011.9 10.9 NE 22.2 NNE 0.4 2.5
18:10 10.2 98.7 1011.7 13.9 NNE 28.9 NE 0.4 1.8
18:15 10.0 98.6 1011.6 15.4 NNE 28.9 NNE 0.3 1.6
18:20 10.0 98.8 1011.4 14.7 NNE 32.5 NE 0.2 1.0
18:25 10.1 98.9 1011.1 19.8 NNE 38.8 N 0.2 1.0
18:30 10.1 98.9 1011.1 14.1 NNE 30.7 NNE 0.1 0.9
18:35 10.1 98.9 1011.0 14.0 NNE 38.1 NNE 0.0 0.6
18:40 10.0 99.0 1011.0 19.0 NNE 34.9 NNE 0.1 0.4
18:45 9.9 98.9 1011.0 18.0 NNE 41.6 NE 0.1 0.2
18:50 9.8 98.9 1011.1 18.2 NNE 33.9 NNE 0.0 0.2
18:55 9.7 99.0 1011.3 15.4 NNE 34.9 NNE 0.1 0.2
19:00 9.5 98.9 1011.5 15.1 NNE 30.0 NNE 0.1 0.2
Máxima 14.2 99.0 1015.5 19.8 NNE 41.6 NE 0.8 578.2
Mínima 8.6 81.1 1011.0
Total 15.7